Placentia, CA (92870)

8:10 PM PDT on September 18, 2014 (GMT -0700)
Yorba Linda Blvd. | Change Station
CLOSE
Current Station
Personal Weather Station
Location: Placentia, CA
Elevation: 308 ft
Nearby Weather Stations

Elev 308 ft 33.89 °N, 117.84 °W | Updated 9 minutes ago

Clear
Clear
73.3 °F
Feels Like 74 °F
N
0.0
Wind Variable Wind from NW

Today
High -- | Low -- °F
--% Chance of Precip.
Yesterday
High -- | Low -- °F
Precip. -- in
6:36 AM 6:53 PM
Waning Crescent, 22% visible
Pressure 29.82 in
Visibility 10.0 miles
Clouds Clear
Heat Index 74 °F
Dew Point 66 °F
Humidity 77%
Rainfall 0.00 in
Snow Depth 0 in , 0 in , 0 in
UV 0 out of 12
Pollen 6.80 out of 12
Ozone Good
PM2.5 Good
Flu Activity Not available.
METAR KFUL 190253Z 30005KT 10SM CLR 23/18 A2982 RMK AO2 SLP098 T02280178 53011

More Conditions Fewer Conditions

Pressure 29.82 in
Visibility 10.0 miles
Clouds Clear
Heat Index 74 °F
Dew Point 66 °F
Humidity 77%
Rainfall 0.00 in
Snow Depth 0 in , 0 in , 0 in
UV 0 out of 12
Pollen 6.80 out of 12
Ozone Good
PM2.5 Good
Flu Activity Not available.
METAR KFUL 190253Z 30005KT 10SM CLR 23/18 A2982 RMK AO2 SLP098 T02280178 53011

More Conditions Fewer Conditions

10-Day Weather Forecast

Almanac

Astronomy

Sep. 18, 2014 Rise Set
Actual Time 6:36 AM PDT 6:53 PM PDT
Civil Twilight 6:11 AM PDT 7:18 PM PDT
Nautical Twilight 5:42 AM PDT 7:47 PM PDT
Astronomical Twilight 5:12 AM PDT 8:17 PM PDT
Moon 1:43 AM PDT (9/18) 3:38 PM PDT (9/18)
Length of Visible Light 13h 06m
Length of Day
12h 16m
Tomorrow will be 2m 5s shorter.
Waning Crescent, 22% of the Moon is Illuminated
Today
Waning Crescent
Sep 24
New
Oct 1
First Quarter
Oct 8
Full
Oct 15
Last Quarter

Today's Extremes

State Highs State Lows

Community

WunderPhotos

Upload Photos

1,754,550 photos uploaded!

Nearby

Air Quality

  Air Quality AQ Index Pollutant
Yesterday Good
PM10
Current Good
PM2.5
Current Good
OZONE
Friday Good
PM10
Friday Good
OZONE
Friday Good
CO
Friday Good
NO2

Snow Depth

Station Depth Elevation
Monitor Pass 0 in 8350 ft
Spratt Creek 0 in 6200 ft
Summit Meadow 0 in 9122 ft
Leavitt Meadows 0 in 7200 ft
Leavitt Lake 0 in 9400 ft

Earthquake Activity

City Distance Mag. Time & Date
La Quinta, California 84 miles 2.7 8:59 PM PDT
2014-09-15
Minimum magnitude displayed is 2.5.

Coastal Water Temperatures

Place Temperature
Santa Monica Pier 71.1 °F
Los Angeles, CA 68.0 °F
La Jolla, CA 72.0 °F

Nearby Weather Stations